Time;durP1;ratioP1;P1;durP2;ratioP2;P2;SDS_P1;SDS_P2;PMS_P1;PMS_P2;Temp;Humidity;BMP_temperature;BMP_pressure;BME280_temperature;BME280_humidity;BME280_pressure;Samples;Min_cycle;Max_cycle;Signal;HPM_P1;HPM_P2
2023/01/30 00:00:24;;;;;;;16.43;9.10;;;-0.30;99.90;;;;;;5115626;28;20177;-81
2023/01/30 00:02:50;;;;;;;14.70;8.13;;;-0.30;99.90;;;;;;5114700;28;20174;-81
2023/01/30 00:05:16;;;;;;;13.97;8.97;;;-0.30;99.90;;;;;;5117155;28;20532;-81
2023/01/30 00:07:41;;;;;;;15.30;9.23;;;-0.40;99.90;;;;;;5117943;28;20220;-81
2023/01/30 00:10:08;;;;;;;15.03;8.47;;;-0.40;99.90;;;;;;5114400;28;20208;-82
2023/01/30 00:12:34;;;;;;;15.40;9.33;;;-0.40;99.90;;;;;;5114137;28;20173;-81
2023/01/30 00:14:59;;;;;;;13.33;8.27;;;-0.40;99.90;;;;;;5114411;28;20253;-82
2023/01/30 00:17:25;;;;;;;16.93;9.50;;;-0.40;99.90;;;;;;5113865;28;20171;-81
2023/01/30 00:19:51;;;;;;;16.37;8.90;;;-0.40;99.90;;;;;;5114521;28;20672;-78
2023/01/30 00:22:16;;;;;;;15.53;8.73;;;-0.50;99.90;;;;;;5114062;28;20626;-76
2023/01/30 00:24:42;;;;;;;14.07;8.90;;;-0.50;99.90;;;;;;5114388;28;20162;-80
2023/01/30 00:27:08;;;;;;;13.17;8.80;;;-0.50;99.90;;;;;;5114681;28;20625;-79
2023/01/30 00:29:33;;;;;;;13.63;8.73;;;-0.60;99.90;;;;;;5114080;28;20198;-80
2023/01/30 00:31:59;;;;;;;13.33;8.37;;;-0.60;99.90;;;;;;5113971;28;20179;-77
2023/01/30 00:34:25;;;;;;;13.00;8.27;;;-0.60;99.90;;;;;;5114512;28;20188;-82
2023/01/30 00:36:50;;;;;;;14.03;8.47;;;-0.50;99.90;;;;;;5113892;28;20585;-79
2023/01/30 00:39:16;;;;;;;15.93;9.17;;;-0.50;99.90;;;;;;5114111;28;20178;-81
2023/01/30 00:47:11;;;;;;;16.37;9.20;;;-0.60;99.90;;;;;;5114597;28;20679;-81
2023/01/30 00:49:37;;;;;;;15.30;8.53;;;-0.70;99.90;;;;;;5113967;28;20197;-80
2023/01/30 00:52:03;;;;;;;14.53;9.17;;;-0.80;99.90;;;;;;5113183;28;20261;-82
2023/01/30 00:54:29;;;;;;;11.77;8.27;;;-0.90;99.90;;;;;;5113810;28;20177;-81
2023/01/30 00:56:55;;;;;;;15.77;9.37;;;-0.80;99.90;;;;;;5114233;28;20516;-80
2023/01/30 00:59:21;;;;;;;15.67;8.23;;;-0.90;99.90;;;;;;5113580;28;20185;-83
2023/01/30 01:01:46;;;;;;;11.77;8.13;;;-1.00;99.90;;;;;;5113648;28;20626;-82
2023/01/30 01:04:12;;;;;;;12.23;7.90;;;-1.10;99.90;;;;;;5095175;28;20177;-80
2023/01/30 01:06:39;;;;;;;12.13;8.03;;;-1.10;99.90;;;;;;5114166;28;20483;-81
2023/01/30 01:09:06;;;;;;;11.47;7.70;;;-1.10;99.90;;;;;;5113716;28;20171;-80
2023/01/30 01:11:33;;;;;;;11.30;7.63;;;-1.10;99.90;;;;;;5122642;28;20256;-81
2023/01/30 01:14:00;;;;;;;15.80;8.33;;;-1.20;99.90;;;;;;5099121;28;20173;-81
2023/01/30 01:16:28;;;;;;;13.43;7.50;;;-1.20;99.90;;;;;;5113704;28;20182;-79
2023/01/30 01:18:54;;;;;;;9.87;7.57;;;-1.10;99.90;;;;;;5113884;28;20166;-82
2023/01/30 01:21:20;;;;;;;11.27;7.80;;;-1.00;99.90;;;;;;5113557;28;20182;-82
2023/01/30 01:23:55;;;;;;;12.30;7.60;;;-1.00;99.90;;;;;;5113282;28;20172;-82
2023/01/30 01:26:21;;;;;;;12.73;8.00;;;-1.00;99.90;;;;;;5113661;28;20232;-80
2023/01/30 01:28:47;;;;;;;13.80;7.63;;;-1.00;99.90;;;;;;5115167;28;20260;-82
2023/01/30 01:31:14;;;;;;;11.77;7.23;;;-1.00;99.90;;;;;;5117100;28;20288;-81
2023/01/30 01:33:40;;;;;;;8.40;6.53;;;-0.90;99.90;;;;;;5117001;28;20173;-79
2023/01/30 01:36:07;;;;;;;10.60;8.00;;;-0.90;99.90;;;;;;5117694;28;20256;-82
2023/01/30 01:38:33;;;;;;;11.23;7.57;;;-1.00;99.90;;;;;;5117861;28;20166;-81
2023/01/30 01:41:02;;;;;;;8.43;6.57;;;-1.10;99.90;;;;;;5119455;28;20166;-81
2023/01/30 01:43:35;;;;;;;12.07;7.73;;;-1.10;99.90;;;;;;5100616;28;20652;-80
2023/01/30 01:46:20;;;;;;;11.73;7.63;;;-1.00;99.90;;;;;;5121176;28;20213;-81
2023/01/30 01:48:51;;;;;;;11.10;7.37;;;-1.10;99.90;;;;;;5122887;28;20166;-81
2023/01/30 01:51:28;;;;;;;11.00;7.53;;;-1.10;99.90;;;;;;5138685;28;20222;-82
2023/01/30 01:54:00;;;;;;;11.87;7.80;;;-1.20;99.90;;;;;;5133271;28;20184;-81
2023/01/30 01:56:26;;;;;;;11.00;7.43;;;-1.10;99.90;;;;;;5121124;28;20158;-83
2023/01/30 01:59:00;;;;;;;14.17;7.67;;;-1.20;99.90;;;;;;5118341;28;20181;-81
2023/01/30 02:01:27;;;;;;;11.87;7.47;;;-1.20;99.90;;;;;;5118874;28;20257;-80
2023/01/30 02:03:57;;;;;;;10.53;7.40;;;-1.30;99.90;;;;;;5117035;28;20161;-81
2023/01/30 02:06:23;;;;;;;13.40;8.27;;;-1.20;99.90;;;;;;5116224;28;20326;-80
2023/01/30 02:08:54;;;;;;;13.80;8.20;;;-1.20;99.90;;;;;;5116698;28;20169;-77
2023/01/30 02:11:23;;;;;;;12.40;6.87;;;-1.20;99.90;;;;;;5116379;28;20717;-80
2023/01/30 02:13:49;;;;;;;13.60;8.23;;;-1.20;99.90;;;;;;5116177;28;20166;-82
2023/01/30 02:16:16;;;;;;;11.57;7.20;;;-1.20;99.90;;;;;;5116816;28;20162;-83
2023/01/30 02:18:44;;;;;;;10.80;7.87;;;-1.20;99.90;;;;;;5115878;28;20173;-79
2023/01/30 02:21:22;;;;;;;8.83;7.37;;;-1.20;99.90;;;;;;5115668;28;20272;-82
2023/01/30 02:24:11;;;;;;;12.27;7.83;;;-1.20;99.90;;;;;;5116556;28;20177;-82
2023/01/30 02:26:52;;;;;;;14.97;8.10;;;-1.20;99.90;;;;;;5116837;28;20159;-80
2023/01/30 02:29:30;;;;;;;14.87;9.00;;;-1.20;99.90;;;;;;5098201;28;20174;-80
2023/01/30 02:32:18;;;;;;;16.30;8.73;;;-1.20;99.90;;;;;;5116619;28;20532;-80
2023/01/30 02:35:13;;;;;;;12.10;7.83;;;-1.30;99.90;;;;;;5116407;28;20162;-82
2023/01/30 02:38:03;;;;;;;11.20;8.27;;;-1.40;99.90;;;;;;5097423;28;20539;-82
2023/01/30 02:40:38;;;;;;;14.90;8.73;;;-1.30;99.90;;;;;;5115454;28;20162;-79
2023/01/30 02:43:30;;;;;;;14.97;9.03;;;-1.30;99.90;;;;;;5115321;28;20176;-80
2023/01/30 02:46:16;;;;;;;13.97;8.13;;;-1.30;99.90;;;;;;5116200;28;20181;-80
2023/01/30 02:49:06;;;;;;;14.53;8.50;;;-1.50;99.90;;;;;;5116177;28;20612;-82
2023/01/30 02:51:35;;;;;;;12.97;8.37;;;-1.50;99.90;;;;;;5121928;28;20211;-82
2023/01/30 02:54:01;;;;;;;16.63;9.33;;;-1.40;99.90;;;;;;5118939;28;20533;-82
2023/01/30 02:56:27;;;;;;;15.07;9.07;;;-1.40;99.90;;;;;;5116226;28;20166;-82
2023/01/30 02:59:05;;;;;;;14.37;8.90;;;-1.50;99.90;;;;;;5115919;28;20684;-80
2023/01/30 03:01:49;;;;;;;16.70;8.53;;;-1.50;99.90;;;;;;5115667;28;20233;-81
2023/01/30 03:04:17;;;;;;;13.73;8.90;;;-1.50;99.90;;;;;;5115363;28;20300;-81
2023/01/30 03:06:57;;;;;;;15.83;8.43;;;-1.60;99.90;;;;;;5116005;28;20162;-81
2023/01/30 03:09:35;;;;;;;13.30;9.40;;;-1.70;99.90;;;;;;5115681;28;20518;-82
2023/01/30 03:12:01;;;;;;;11.90;8.23;;;-1.70;99.90;;;;;;5114756;28;20261;-82
2023/01/30 03:14:38;;;;;;;12.50;8.10;;;-1.70;99.90;;;;;;5115439;28;20227;-82
2023/01/30 03:17:07;;;;;;;11.33;7.67;;;-1.60;99.90;;;;;;5115562;28;20208;-80
2023/01/30 03:19:33;;;;;;;14.87;9.00;;;-1.70;99.90;;;;;;5115181;28;20170;-81
2023/01/30 03:21:59;;;;;;;11.50;8.10;;;-1.70;99.90;;;;;;5115139;28;20162;-81
2023/01/30 03:24:25;;;;;;;12.33;8.20;;;-1.80;99.90;;;;;;5115296;28;20166;-83
2023/01/30 03:27:01;;;;;;;11.93;7.60;;;-1.80;99.90;;;;;;5115936;28;20169;-82
2023/01/30 03:29:26;;;;;;;14.70;8.50;;;-1.80;99.90;;;;;;5115651;28;20296;-82
2023/01/30 03:31:52;;;;;;;12.83;8.10;;;-1.80;99.90;;;;;;5114937;28;20648;-80
2023/01/30 03:34:18;;;;;;;13.30;8.63;;;-1.80;99.90;;;;;;5114404;28;20633;-78
2023/01/30 03:36:44;;;;;;;15.60;9.10;;;-1.80;99.90;;;;;;5114909;28;20209;-80
2023/01/30 03:39:09;;;;;;;14.23;8.33;;;-1.80;99.90;;;;;;5114881;28;20204;-82
2023/01/30 03:41:35;;;;;;;13.03;8.40;;;-1.80;99.90;;;;;;5115306;28;20184;-79
2023/01/30 03:44:01;;;;;;;12.30;8.50;;;-1.90;99.90;;;;;;5114205;28;20312;-82
2023/01/30 03:46:26;;;;;;;16.43;8.60;;;-1.90;99.90;;;;;;5115744;28;20189;-80
2023/01/30 03:48:52;;;;;;;12.90;8.17;;;-1.90;99.90;;;;;;5115401;28;20580;-81
2023/01/30 03:51:18;;;;;;;12.80;8.47;;;-1.90;99.90;;;;;;5116428;28;20206;-82
2023/01/30 03:53:44;;;;;;;12.97;9.23;;;-2.10;99.90;;;;;;5118682;28;20176;-78
2023/01/30 03:56:10;;;;;;;14.63;8.93;;;-2.20;99.90;;;;;;5105526;28;20248;-81
2023/01/30 03:58:35;;;;;;;12.10;7.67;;;-2.30;99.90;;;;;;5117922;28;20649;-81
2023/01/30 04:01:01;;;;;;;12.83;7.77;;;-2.40;99.90;;;;;;5115138;28;20181;-80
2023/01/30 04:03:27;;;;;;;14.20;8.53;;;-2.40;99.90;;;;;;5114234;28;20166;-81
2023/01/30 04:05:53;;;;;;;10.73;7.80;;;-2.40;99.90;;;;;;5114406;28;20184;-81
2023/01/30 04:08:18;;;;;;;12.87;7.90;;;-2.50;99.90;;;;;;5114780;28;20539;-82
2023/01/30 04:10:44;;;;;;;11.73;7.50;;;-2.60;99.90;;;;;;5114446;28;20213;-79
2023/01/30 04:13:10;;;;;;;13.13;8.63;;;-2.60;99.90;;;;;;5113897;28;20166;-80
2023/01/30 04:15:35;;;;;;;11.33;7.30;;;-2.50;99.90;;;;;;5095808;28;20632;-82
2023/01/30 04:18:01;;;;;;;11.77;8.00;;;-2.50;99.90;;;;;;5114303;28;20173;-82
2023/01/30 04:20:27;;;;;;;11.77;8.03;;;-2.50;99.90;;;;;;5114477;28;20189;-80
2023/01/30 04:22:55;;;;;;;16.20;8.73;;;-2.60;99.90;;;;;;5114573;28;20774;-82
2023/01/30 04:25:21;;;;;;;9.93;7.60;;;-2.60;99.90;;;;;;5113974;28;20184;-81
2023/01/30 04:27:46;;;;;;;14.33;7.90;;;-2.70;99.90;;;;;;5114255;28;20170;-82
2023/01/30 04:30:12;;;;;;;13.20;7.57;;;-2.80;99.90;;;;;;5114503;28;20752;-82
2023/01/30 04:32:38;;;;;;;13.97;8.43;;;-2.70;99.90;;;;;;5122687;28;20176;-81
2023/01/30 04:35:04;;;;;;;13.57;7.87;;;-2.60;99.90;;;;;;5120660;28;20172;-83
2023/01/30 04:37:30;;;;;;;12.57;7.33;;;-2.60;99.90;;;;;;5113978;28;20535;-78
2023/01/30 04:39:56;;;;;;;11.83;7.70;;;-2.50;99.90;;;;;;5113635;28;20582;-78
2023/01/30 04:42:22;;;;;;;13.20;7.90;;;-2.50;99.90;;;;;;5113636;28;20170;-81
2023/01/30 04:44:47;;;;;;;13.13;8.07;;;-2.50;99.90;;;;;;5113345;28;20317;-81
2023/01/30 04:47:13;;;;;;;11.10;7.40;;;-2.60;99.90;;;;;;5114052;28;20183;-81
2023/01/30 04:49:40;;;;;;;12.33;8.00;;;-2.50;99.90;;;;;;5113823;28;20229;-82
2023/01/30 04:52:06;;;;;;;12.43;7.87;;;-2.50;99.90;;;;;;5113629;28;20182;-82
2023/01/30 04:54:32;;;;;;;12.47;8.10;;;-2.40;99.90;;;;;;5095384;28;20184;-81
2023/01/30 04:56:57;;;;;;;12.27;7.70;;;-2.40;99.90;;;;;;5113354;28;20174;-81
2023/01/30 04:59:23;;;;;;;10.53;7.43;;;-2.40;99.90;;;;;;5113840;28;20223;-80
2023/01/30 05:01:49;;;;;;;12.40;8.63;;;-2.50;99.90;;;;;;5113901;28;20306;-82
2023/01/30 05:04:15;;;;;;;10.90;7.77;;;-2.50;99.90;;;;;;5094853;28;20179;-83
2023/01/30 05:06:41;;;;;;;9.57;7.40;;;-2.60;99.90;;;;;;5095307;28;20680;-82
2023/01/30 05:09:06;;;;;;;12.20;6.90;;;-2.60;99.90;;;;;;5113702;28;20202;-83
2023/01/30 05:11:32;;;;;;;11.50;7.67;;;-2.60;99.90;;;;;;5113746;28;20209;-81
2023/01/30 05:13:58;;;;;;;11.80;7.73;;;-2.60;99.90;;;;;;5113365;28;20242;-82
2023/01/30 05:16:25;;;;;;;10.30;7.53;;;-2.60;99.90;;;;;;5113752;28;20606;-83
2023/01/30 05:18:51;;;;;;;11.80;6.90;;;-2.50;99.90;;;;;;5113587;28;20166;-82
2023/01/30 05:21:27;;;;;;;10.37;6.93;;;-2.60;99.90;;;;;;5113903;28;20176;-82
2023/01/30 05:23:54;;;;;;;9.63;6.97;;;-2.70;99.90;;;;;;5113491;28;20154;-82
2023/01/30 05:26:20;;;;;;;11.70;7.23;;;-2.70;99.90;;;;;;5113610;28;20257;-83
2023/01/30 05:28:53;;;;;;;12.43;7.67;;;-2.70;99.90;;;;;;5113859;28;20166;-82
2023/01/30 05:31:19;;;;;;;10.57;7.43;;;-2.70;99.90;;;;;;5113590;28;20198;-80
2023/01/30 05:33:47;;;;;;;11.70;7.27;;;-2.50;99.90;;;;;;5113556;28;20170;-82
2023/01/30 05:36:15;;;;;;;24.27;13.10;;;-2.40;99.90;;;;;;5113887;28;20166;-82
2023/01/30 05:38:42;;;;;;;14.10;8.60;;;-2.40;99.90;;;;;;5113739;28;20166;-82
2023/01/30 05:41:13;;;;;;;14.43;9.57;;;-2.30;99.90;;;;;;5113673;28;20219;-79
2023/01/30 05:43:39;;;;;;;12.07;8.67;;;-2.30;99.90;;;;;;5095344;28;20237;-79
2023/01/30 05:46:05;;;;;;;15.50;9.53;;;-2.20;99.90;;;;;;5114639;28;20197;-80
2023/01/30 05:48:32;;;;;;;17.70;8.70;;;-2.20;99.90;;;;;;5114490;28;20178;-80
2023/01/30 05:50:59;;;;;;;11.87;6.93;;;-2.20;99.90;;;;;;5096539;28;20296;-81
2023/01/30 05:53:28;;;;;;;11.77;7.90;;;-2.20;99.90;;;;;;5117671;28;20173;-81
2023/01/30 05:55:59;;;;;;;11.90;7.70;;;-2.20;99.90;;;;;;5127740;28;20169;-81
2023/01/30 05:58:25;;;;;;;13.77;8.63;;;-2.20;99.90;;;;;;5121185;28;20645;-78
2023/01/30 06:00:51;;;;;;;13.57;7.63;;;-2.10;99.90;;;;;;5095743;28;20174;-82
2023/01/30 06:03:17;;;;;;;16.20;8.90;;;-2.10;99.90;;;;;;5113242;28;20216;-80
2023/01/30 06:05:43;;;;;;;15.33;9.13;;;-2.10;99.90;;;;;;5113283;28;20524;-80
2023/01/30 06:08:08;;;;;;;15.07;8.67;;;-2.10;99.90;;;;;;5113221;28;20174;-82
2023/01/30 06:10:35;;;;;;;21.10;8.57;;;-2.00;99.90;;;;;;5116307;28;20205;-80
2023/01/30 06:13:01;;;;;;;17.23;9.60;;;-2.10;99.90;;;;;;5126980;28;20234;-82
2023/01/30 06:15:26;;;;;;;18.53;9.83;;;-2.10;99.90;;;;;;5114021;28;20648;-82
2023/01/30 06:17:52;;;;;;;14.13;9.40;;;-2.10;99.90;;;;;;5098397;28;20166;-80
2023/01/30 06:20:18;;;;;;;22.40;11.77;;;-2.20;99.90;;;;;;5126645;28;20172;-81
2023/01/30 06:22:44;;;;;;;20.30;11.80;;;-2.20;99.90;;;;;;5117085;28;20526;-81
2023/01/30 06:25:10;;;;;;;21.13;10.53;;;-2.10;99.90;;;;;;5116888;28;20184;-83
2023/01/30 06:27:35;;;;;;;15.03;9.70;;;-2.00;99.90;;;;;;5116750;28;20686;-80
2023/01/30 06:30:01;;;;;;;15.90;9.47;;;-2.00;99.90;;;;;;5116786;28;20593;-81
2023/01/30 06:32:27;;;;;;;16.50;10.17;;;-1.90;99.90;;;;;;5116691;28;20202;-82
2023/01/30 06:34:53;;;;;;;15.47;8.97;;;-1.90;99.90;;;;;;5116487;28;20220;-83
2023/01/30 06:37:18;;;;;;;16.63;9.17;;;-1.90;99.90;;;;;;5116499;28;20696;-81
2023/01/30 06:39:44;;;;;;;16.00;9.60;;;-2.00;99.90;;;;;;5116162;28;20510;-81
2023/01/30 06:42:10;;;;;;;17.00;9.90;;;-2.00;99.90;;;;;;5116992;28;20506;-80
2023/01/30 06:44:36;;;;;;;13.53;9.30;;;-2.00;99.90;;;;;;5116714;28;20265;-81
2023/01/30 06:47:01;;;;;;;13.93;9.40;;;-2.00;99.90;;;;;;5118417;28;20178;-79
2023/01/30 06:49:27;;;;;;;16.20;10.03;;;-2.10;99.90;;;;;;5121698;28;20227;-81
2023/01/30 06:51:53;;;;;;;17.90;10.33;;;-2.00;99.90;;;;;;5122231;28;20185;-80
2023/01/30 06:54:19;;;;;;;17.30;9.83;;;-2.10;99.90;;;;;;5102101;28;20169;-79
2023/01/30 06:56:44;;;;;;;15.10;9.33;;;-2.10;99.90;;;;;;5123272;28;20190;-81
2023/01/30 06:59:10;;;;;;;16.50;9.83;;;-2.00;99.90;;;;;;5104218;28;20205;-82
2023/01/30 07:01:37;;;;;;;19.60;10.77;;;-1.90;99.90;;;;;;5117313;28;20193;-81
2023/01/30 07:04:03;;;;;;;16.90;10.97;;;-1.90;99.90;;;;;;5117396;28;20170;-80
2023/01/30 07:06:29;;;;;;;17.43;10.10;;;-1.90;99.90;;;;;;5120589;28;20188;-78
2023/01/30 07:08:57;;;;;;;14.00;9.60;;;-1.80;99.90;;;;;;5120844;28;20624;-79
2023/01/30 07:11:24;;;;;;;16.90;10.03;;;-1.80;99.90;;;;;;5120618;28;20198;-80
2023/01/30 07:13:50;;;;;;;14.73;9.97;;;-1.60;99.90;;;;;;5117330;28;20177;-81
2023/01/30 07:16:16;;;;;;;19.17;10.47;;;-1.60;99.90;;;;;;5097561;28;20182;-82
2023/01/30 07:18:42;;;;;;;19.30;10.67;;;-1.60;99.90;;;;;;5097228;28;20532;-82
2023/01/30 07:21:08;;;;;;;18.27;10.93;;;-1.60;99.90;;;;;;5115750;28;20214;-81
2023/01/30 07:23:34;;;;;;;16.33;10.53;;;-1.50;99.90;;;;;;5115381;28;20658;-83
2023/01/30 07:26:05;;;;;;;18.87;10.43;;;-1.60;99.90;;;;;;5115708;28;20174;-82
2023/01/30 07:28:30;;;;;;;17.10;10.13;;;-1.40;99.90;;;;;;5115259;28;20166;-80
2023/01/30 07:31:00;;;;;;;13.50;9.63;;;-1.40;99.90;;;;;;5115435;28;20270;-81
2023/01/30 07:33:25;;;;;;;20.63;11.13;;;-1.30;99.90;;;;;;5114964;28;20223;-81
2023/01/30 07:35:51;;;;;;;15.83;9.97;;;-1.30;99.90;;;;;;5115359;28;20178;-81
2023/01/30 07:38:17;;;;;;;13.43;9.33;;;-1.30;99.90;;;;;;5115209;28;20176;-81
2023/01/30 07:40:43;;;;;;;15.07;9.57;;;-1.30;99.90;;;;;;5115259;28;20174;-80
2023/01/30 07:43:11;;;;;;;18.37;10.57;;;-1.30;99.90;;;;;;5115312;28;20605;-82
2023/01/30 07:45:39;;;;;;;14.20;9.67;;;-1.20;99.90;;;;;;5116397;28;20184;-81
2023/01/30 07:48:06;;;;;;;14.67;10.13;;;-1.10;99.90;;;;;;5116117;28;20163;-78
2023/01/30 07:50:32;;;;;;;16.83;9.90;;;-1.00;99.90;;;;;;5118462;28;20205;-81
2023/01/30 07:52:58;;;;;;;15.23;9.73;;;-1.00;99.90;;;;;;5129448;28;20192;-81
2023/01/30 07:55:24;;;;;;;17.03;10.90;;;-1.00;99.90;;;;;;5122656;28;20167;-81
2023/01/30 07:57:50;;;;;;;18.27;10.13;;;-0.90;99.90;;;;;;5127013;28;20235;-81
2023/01/30 08:00:18;;;;;;;18.30;10.30;;;-0.90;99.90;;;;;;5119073;28;20177;-83
2023/01/30 08:02:44;;;;;;;20.23;10.40;;;-0.80;99.90;;;;;;5115227;28;20175;-84
2023/01/30 08:05:10;;;;;;;18.73;10.00;;;-0.80;99.90;;;;;;5114978;28;20170;-82
2023/01/30 08:07:36;;;;;;;15.10;10.27;;;-0.70;99.90;;;;;;5114941;28;20205;-79
2023/01/30 08:10:01;;;;;;;17.63;10.90;;;-0.70;99.90;;;;;;5114614;28;20193;-80
2023/01/30 08:12:28;;;;;;;16.73;10.30;;;-0.60;99.90;;;;;;5114575;28;20241;-79
2023/01/30 08:14:53;;;;;;;16.63;9.93;;;-0.50;99.90;;;;;;5113824;28;20193;-76
2023/01/30 08:17:19;;;;;;;19.77;11.07;;;-0.50;99.90;;;;;;5096116;28;20213;-76
2023/01/30 08:19:45;;;;;;;15.33;10.23;;;-0.40;99.90;;;;;;5114209;28;20163;-76
2023/01/30 08:22:11;;;;;;;17.47;10.33;;;-0.40;99.90;;;;;;5115928;28;20175;-77
2023/01/30 08:24:36;;;;;;;19.07;11.40;;;-0.30;99.90;;;;;;5125478;28;20171;-78
2023/01/30 08:27:02;;;;;;;17.97;11.03;;;-0.30;99.90;;;;;;5116991;28;20170;-77
2023/01/30 08:29:28;;;;;;;17.70;11.33;;;-0.30;99.90;;;;;;5114646;28;20176;-81
2023/01/30 08:31:58;;;;;;;18.87;11.37;;;-0.30;99.90;;;;;;5096269;28;20583;-82
2023/01/30 08:34:24;;;;;;;16.97;10.63;;;-0.30;99.90;;;;;;5113959;28;20246;-80
2023/01/30 08:36:50;;;;;;;16.90;10.47;;;-0.30;99.90;;;;;;5095942;28;20304;-82
2023/01/30 08:39:16;;;;;;;20.60;12.00;;;-0.30;99.90;;;;;;5113316;28;20268;-81
2023/01/30 08:41:42;;;;;;;15.87;10.70;;;-0.30;99.90;;;;;;5114492;28;20180;-79
2023/01/30 08:44:09;;;;;;;20.20;11.00;;;-0.10;99.90;;;;;;5114339;28;20216;-83
2023/01/30 08:46:35;;;;;;;17.33;10.60;;;0.10;99.90;;;;;;5115046;28;20252;-80
2023/01/30 08:49:00;;;;;;;17.20;10.50;;;0.20;99.90;;;;;;5114426;28;20261;-79
2023/01/30 08:51:26;;;;;;;18.63;11.60;;;0.30;99.90;;;;;;5114263;28;20198;-80
2023/01/30 08:53:52;;;;;;;15.67;10.33;;;0.60;99.90;;;;;;5113472;28;20168;-80
2023/01/30 08:56:18;;;;;;;15.63;10.60;;;0.60;99.90;;;;;;5113947;28;20577;-79
2023/01/30 08:58:45;;;;;;;16.23;10.27;;;0.70;99.90;;;;;;5113594;28;20196;-79
2023/01/30 09:01:11;;;;;;;16.77;11.23;;;0.80;99.90;;;;;;5113292;28;20525;-81
2023/01/30 09:03:38;;;;;;;16.83;10.63;;;0.80;99.90;;;;;;5113978;28;20567;-81
2023/01/30 09:06:04;;;;;;;17.30;10.43;;;0.80;99.90;;;;;;5114313;28;20169;-81
2023/01/30 09:08:29;;;;;;;17.90;10.83;;;1.00;99.90;;;;;;5113727;28;20164;-79
2023/01/30 09:10:59;;;;;;;17.83;11.13;;;1.10;99.90;;;;;;5113585;28;20670;-81
2023/01/30 09:13:26;;;;;;;16.97;10.97;;;1.30;99.90;;;;;;5113672;28;20171;-81
2023/01/30 09:15:52;;;;;;;22.43;11.37;;;1.40;99.90;;;;;;5113954;28;20304;-81
2023/01/30 09:18:17;;;;;;;16.30;10.23;;;1.40;99.90;;;;;;5113752;28;20179;-81
2023/01/30 09:20:43;;;;;;;17.20;10.70;;;1.50;99.90;;;;;;5113350;28;20232;-80
2023/01/30 09:23:09;;;;;;;15.73;10.90;;;1.40;99.90;;;;;;5113554;28;20310;-80
2023/01/30 09:25:34;;;;;;;14.93;10.27;;;1.50;99.90;;;;;;5113650;28;20514;-79
2023/01/30 09:28:00;;;;;;;17.20;10.83;;;1.70;99.90;;;;;;5113605;28;20179;-81
2023/01/30 09:30:26;;;;;;;18.17;11.57;;;1.70;99.90;;;;;;5113424;28;20244;-80
2023/01/30 09:32:52;;;;;;;20.13;11.07;;;1.60;99.90;;;;;;5119742;28;20183;-82
2023/01/30 09:35:18;;;;;;;19.37;11.33;;;1.70;99.90;;;;;;5118585;28;20236;-81
2023/01/30 09:37:52;;;;;;;18.30;11.17;;;1.80;99.90;;;;;;5113857;28;20177;-79
2023/01/30 09:40:22;;;;;;;18.57;11.50;;;1.80;99.90;;;;;;5113115;28;20256;-78
2023/01/30 09:43:06;;;;;;;15.67;11.33;;;1.90;99.90;;;;;;5113280;28;20258;-82
2023/01/30 09:45:47;;;;;;;17.23;10.87;;;2.00;99.90;;;;;;5095660;28;20200;-80
2023/01/30 09:48:35;;;;;;;16.77;11.70;;;2.10;99.90;;;;;;5113527;28;20263;-79
2023/01/30 09:51:16;;;;;;;15.73;11.47;;;2.00;99.90;;;;;;5117820;28;20251;-80
2023/01/30 09:53:54;;;;;;;14.90;10.77;;;2.20;99.90;;;;;;5118888;28;20240;-82
2023/01/30 09:56:20;;;;;;;16.13;11.67;;;2.30;99.90;;;;;;5121038;28;20202;-81
2023/01/30 09:58:53;;;;;;;17.70;11.37;;;2.30;99.90;;;;;;5122479;28;20168;-81
2023/01/30 10:02:15;;;;;;;17.13;10.80;;;2.40;99.90;;;;;;5119870;28;20174;-76
2023/01/30 10:04:44;;;;;;;16.10;10.23;;;2.50;99.90;;;;;;4998449;28;20226;-75
2023/01/30 10:07:23;;;;;;;13.37;9.97;;;2.60;99.90;;;;;;5098630;28;20199;-78
2023/01/30 10:10:28;;;;;;;14.07;9.77;;;2.60;99.90;;;;;;5117245;28;20197;-80
2023/01/30 10:13:15;;;;;;;18.20;9.27;;;2.60;99.90;;;;;;5116889;28;20177;-79
2023/01/30 10:15:55;;;;;;;14.30;8.67;;;2.70;99.90;;;;;;5116955;28;20170;-77
2023/01/30 10:18:43;;;;;;;13.20;8.43;;;2.90;99.90;;;;;;5081480;28;20246;-80
2023/01/30 10:21:42;;;;;;;11.03;7.87;;;3.00;99.90;;;;;;5116196;28;20571;-79
2023/01/30 10:24:15;;;;;;;12.07;7.83;;;2.80;99.90;;;;;;5116391;28;20211;-80
2023/01/30 10:26:41;;;;;;;11.17;7.83;;;2.50;99.90;;;;;;5116351;28;20277;-80
2023/01/30 10:29:38;;;;;;;9.60;7.77;;;2.40;99.90;;;;;;5116553;28;20178;-79
2023/01/30 10:32:09;;;;;;;10.90;7.50;;;2.20;99.90;;;;;;5116149;28;20171;-79
2023/01/30 10:34:42;;;;;;;11.60;7.23;;;2.10;99.90;;;;;;5116228;28;20168;-80
2023/01/30 10:37:29;;;;;;;11.30;7.03;;;2.00;99.90;;;;;;5116658;28;20180;-81
2023/01/30 10:40:37;;;;;;;10.97;7.53;;;1.90;99.90;;;;;;5098095;28;20264;-81
2023/01/30 10:43:27;;;;;;;8.23;6.60;;;2.00;99.90;;;;;;5033340;28;20180;-79
2023/01/30 10:46:20;;;;;;;8.73;6.33;;;1.90;99.90;;;;;;5033201;28;20185;-80
2023/01/30 10:49:30;;;;;;;11.57;7.30;;;2.00;99.90;;;;;;5102765;28;20197;-81
2023/01/30 10:52:33;;;;;;;9.00;6.63;;;1.80;99.90;;;;;;5033571;28;20277;-82
2023/01/30 10:55:26;;;;;;;10.30;6.87;;;1.70;99.90;;;;;;5020395;28;20215;-80
2023/01/30 10:58:05;;;;;;;11.30;7.13;;;1.70;99.90;;;;;;5033267;28;20573;-81
2023/01/30 11:00:42;;;;;;;10.53;7.17;;;1.60;99.90;;;;;;5033102;28;20167;-79
2023/01/30 11:03:19;;;;;;;9.77;6.83;;;1.70;99.90;;;;;;5032219;28;20186;-81
2023/01/30 11:05:45;;;;;;;9.30;6.40;;;1.80;99.90;;;;;;5017721;28;20177;-80
2023/01/30 11:08:19;;;;;;;11.40;7.30;;;1.80;99.90;;;;;;5033151;28;20186;-80
2023/01/30 11:10:44;;;;;;;8.73;6.73;;;1.80;99.90;;;;;;5034334;28;20672;-82
2023/01/30 11:13:19;;;;;;;9.00;6.70;;;1.90;99.90;;;;;;5034177;28;20179;-81
2023/01/30 11:15:49;;;;;;;9.37;6.17;;;1.90;99.90;;;;;;5033176;28;20187;-82
2023/01/30 11:18:17;;;;;;;11.07;7.30;;;2.10;99.90;;;;;;5033185;28;20160;-80
2023/01/30 11:20:45;;;;;;;10.90;6.23;;;2.00;99.90;;;;;;5032652;28;20178;-80
2023/01/30 11:23:32;;;;;;;9.00;6.23;;;2.10;99.90;;;;;;5032247;28;20599;-81
2023/01/30 11:26:00;;;;;;;6.17;5.50;;;2.10;99.90;;;;;;5033010;28;20175;-82
2023/01/30 11:28:27;;;;;;;8.73;6.70;;;2.10;99.90;;;;;;5113020;28;20216;-80
2023/01/30 11:30:57;;;;;;;7.30;6.00;;;2.20;99.90;;;;;;5116463;28;20199;-82
2023/01/30 11:33:31;;;;;;;7.67;6.10;;;2.20;99.90;;;;;;5116194;28;20601;-81
2023/01/30 11:36:03;;;;;;;7.33;5.90;;;2.30;99.90;;;;;;5096532;28;20179;-83
2023/01/30 11:38:32;;;;;;;5.87;5.17;;;2.40;99.90;;;;;;5115161;28;20163;-79
2023/01/30 11:41:10;;;;;;;5.50;4.90;;;2.40;99.90;;;;;;5115445;28;20688;-79
2023/01/30 11:43:40;;;;;;;9.23;5.20;;;2.40;99.90;;;;;;5114555;28;20173;-79
2023/01/30 11:46:12;;;;;;;6.43;5.07;;;2.50;99.90;;;;;;5115345;28;20623;-80
2023/01/30 11:48:58;;;;;;;6.50;5.00;;;2.50;99.90;;;;;;5097353;28;20172;-80
2023/01/30 11:51:24;;;;;;;6.53;4.80;;;2.60;99.90;;;;;;5115884;28;20208;-81
2023/01/30 11:54:14;;;;;;;7.87;5.47;;;2.60;99.90;;;;;;5116013;28;20176;-82
2023/01/30 11:56:52;;;;;;;8.13;4.70;;;2.60;99.90;;;;;;5116644;28;20169;-79
2023/01/30 11:59:30;;;;;;;6.93;4.80;;;2.70;99.90;;;;;;5118411;28;20165;-79
2023/01/30 12:02:19;;;;;;;5.53;4.67;;;2.70;99.90;;;;;;5098065;28;20672;-78
2023/01/30 12:04:50;;;;;;;6.43;5.07;;;2.70;99.90;;;;;;5115712;28;20503;-78
2023/01/30 12:07:30;;;;;;;7.50;5.00;;;2.70;99.90;;;;;;5115294;28;20193;-80
2023/01/30 12:09:57;;;;;;;5.73;4.60;;;2.70;99.90;;;;;;5114869;28;20196;-80
2023/01/30 12:12:46;;;;;;;6.47;4.40;;;2.80;99.90;;;;;;5113958;28;20540;-78
2023/01/30 12:15:25;;;;;;;5.43;4.60;;;2.80;99.90;;;;;;5095666;28;20212;-80
2023/01/30 12:18:23;;;;;;;5.93;5.23;;;2.90;99.90;;;;;;5114212;28;20176;-80
2023/01/30 12:20:57;;;;;;;6.70;4.90;;;2.90;99.90;;;;;;5114197;28;20175;-81
2023/01/30 12:23:38;;;;;;;6.10;5.03;;;2.80;99.90;;;;;;5113718;28;20157;-80
2023/01/30 12:26:09;;;;;;;5.43;4.90;;;2.80;99.90;;;;;;5078734;28;20180;-79
2023/01/30 12:28:57;;;;;;;7.57;5.20;;;2.90;99.90;;;;;;5113737;28;20237;-82
2023/01/30 12:32:13;;;;;;;9.77;6.70;;;3.00;99.90;;;;;;5095633;28;20217;-81
2023/01/30 12:34:39;;;;;;;6.60;4.90;;;3.00;99.90;;;;;;5031402;28;20582;-82
2023/01/30 12:37:20;;;;;;;5.30;4.80;;;3.10;99.90;;;;;;5014730;28;20730;-81
2023/01/30 12:40:27;;;;;;;6.73;5.47;;;3.10;99.90;;;;;;5031862;28;20551;-81
2023/01/30 12:42:58;;;;;;;5.87;4.37;;;3.10;99.90;;;;;;5003308;28;20190;-78
2023/01/30 12:45:28;;;;;;;4.43;4.03;;;3.10;99.90;;;;;;5031400;28;20239;-81
2023/01/30 12:48:20;;;;;;;6.37;4.70;;;3.10;99.90;;;;;;5031411;28;20220;-82
2023/01/30 12:51:17;;;;;;;5.03;3.93;;;3.10;99.90;;;;;;5032147;28;20576;-80
2023/01/30 12:53:59;;;;;;;5.57;3.67;;;3.20;99.90;;;;;;5031712;28;20181;-78
2023/01/30 12:56:48;;;;;;;4.37;3.90;;;3.30;99.90;;;;;;5015369;28;20172;-79
2023/01/30 12:59:32;;;;;;;4.00;3.60;;;3.30;99.90;;;;;;5031067;28;20185;-81
2023/01/30 13:02:28;;;;;;;4.67;4.23;;;3.30;99.90;;;;;;5031072;28;20195;-77
2023/01/30 13:05:12;;;;;;;5.67;4.00;;;3.30;99.90;;;;;;5013156;28;20746;-80